sensor_id;sensor_type;location;lat;lon;timestamp;P1;durP1;ratioP1;P2;durP2;ratioP2
2119;SDS011;1066;52.540;13.420;2024-03-02T00:02:07;36.80;;;32.17;;
2119;SDS011;1066;52.540;13.420;2024-03-02T00:04:34;43.57;;;34.70;;
2119;SDS011;1066;52.540;13.420;2024-03-02T00:06:59;41.30;;;35.87;;
2119;SDS011;1066;52.540;13.420;2024-03-02T00:09:25;40.07;;;33.67;;
2119;SDS011;1066;52.540;13.420;2024-03-02T00:11:50;44.20;;;34.90;;
2119;SDS011;1066;52.540;13.420;2024-03-02T00:14:16;40.23;;;35.57;;
2119;SDS011;1066;52.540;13.420;2024-03-02T00:16:41;40.30;;;33.90;;
2119;SDS011;1066;52.540;13.420;2024-03-02T00:19:07;42.13;;;35.07;;
2119;SDS011;1066;52.540;13.420;2024-03-02T00:21:33;43.77;;;35.27;;
2119;SDS011;1066;52.540;13.420;2024-03-02T00:23:59;39.30;;;34.10;;
2119;SDS011;1066;52.540;13.420;2024-03-02T00:26:25;43.27;;;33.90;;
2119;SDS011;1066;52.540;13.420;2024-03-02T00:28:50;39.93;;;33.63;;
2119;SDS011;1066;52.540;13.420;2024-03-02T00:31:20;47.73;;;36.47;;
2119;SDS011;1066;52.540;13.420;2024-03-02T00:33:46;39.77;;;34.80;;
2119;SDS011;1066;52.540;13.420;2024-03-02T00:36:17;44.43;;;33.63;;
2119;SDS011;1066;52.540;13.420;2024-03-02T00:38:48;39.63;;;35.27;;
2119;SDS011;1066;52.540;13.420;2024-03-02T00:41:27;41.20;;;34.73;;
2119;SDS011;1066;52.540;13.420;2024-03-02T00:44:04;37.63;;;33.43;;
2119;SDS011;1066;52.540;13.420;2024-03-02T00:46:34;42.37;;;35.60;;
2119;SDS011;1066;52.540;13.420;2024-03-02T00:49:00;39.07;;;34.10;;
2119;SDS011;1066;52.540;13.420;2024-03-02T00:51:27;41.23;;;36.37;;
2119;SDS011;1066;52.540;13.420;2024-03-02T00:53:55;41.17;;;33.77;;
2119;SDS011;1066;52.540;13.420;2024-03-02T00:56:25;43.20;;;33.93;;
2119;SDS011;1066;52.540;13.420;2024-03-02T00:58:51;42.50;;;35.60;;
2119;SDS011;1066;52.540;13.420;2024-03-02T01:01:17;40.20;;;35.00;;
2119;SDS011;1066;52.540;13.420;2024-03-02T01:03:42;42.93;;;34.43;;
2119;SDS011;1066;52.540;13.420;2024-03-02T01:06:08;40.73;;;33.90;;
2119;SDS011;1066;52.540;13.420;2024-03-02T01:08:36;41.67;;;34.97;;
2119;SDS011;1066;52.540;13.420;2024-03-02T01:11:05;40.10;;;33.60;;
2119;SDS011;1066;52.540;13.420;2024-03-02T01:13:30;40.23;;;33.40;;
2119;SDS011;1066;52.540;13.420;2024-03-02T01:15:56;43.43;;;35.77;;
2119;SDS011;1066;52.540;13.420;2024-03-02T01:18:22;40.30;;;33.90;;
2119;SDS011;1066;52.540;13.420;2024-03-02T01:20:47;39.93;;;34.30;;
2119;SDS011;1066;52.540;13.420;2024-03-02T01:23:16;41.03;;;33.90;;
2119;SDS011;1066;52.540;13.420;2024-03-02T01:25:41;40.23;;;35.20;;
2119;SDS011;1066;52.540;13.420;2024-03-02T01:28:07;43.97;;;33.57;;
2119;SDS011;1066;52.540;13.420;2024-03-02T01:30:32;36.23;;;30.67;;
2119;SDS011;1066;52.540;13.420;2024-03-02T01:32:57;44.70;;;37.00;;
2119;SDS011;1066;52.540;13.420;2024-03-02T01:35:24;40.37;;;34.73;;
2119;SDS011;1066;52.540;13.420;2024-03-02T01:37:50;39.87;;;32.80;;
2119;SDS011;1066;52.540;13.420;2024-03-02T01:40:15;40.37;;;32.77;;
2119;SDS011;1066;52.540;13.420;2024-03-02T01:42:41;43.50;;;34.33;;
2119;SDS011;1066;52.540;13.420;2024-03-02T01:45:07;47.13;;;36.20;;
2119;SDS011;1066;52.540;13.420;2024-03-02T01:47:33;46.43;;;35.00;;
2119;SDS011;1066;52.540;13.420;2024-03-02T01:49:58;42.27;;;36.47;;
2119;SDS011;1066;52.540;13.420;2024-03-02T01:52:24;39.27;;;32.40;;
2119;SDS011;1066;52.540;13.420;2024-03-02T01:54:50;38.43;;;33.07;;
2119;SDS011;1066;52.540;13.420;2024-03-02T01:57:15;38.13;;;31.70;;
2119;SDS011;1066;52.540;13.420;2024-03-02T01:59:40;42.40;;;34.67;;
2119;SDS011;1066;52.540;13.420;2024-03-02T02:02:06;42.80;;;35.60;;
2119;SDS011;1066;52.540;13.420;2024-03-02T02:04:32;39.97;;;32.43;;
2119;SDS011;1066;52.540;13.420;2024-03-02T02:06:57;37.67;;;32.87;;
2119;SDS011;1066;52.540;13.420;2024-03-02T02:09:23;42.20;;;33.67;;
2119;SDS011;1066;52.540;13.420;2024-03-02T02:11:50;42.40;;;35.30;;
2119;SDS011;1066;52.540;13.420;2024-03-02T02:14:15;42.60;;;32.97;;
2119;SDS011;1066;52.540;13.420;2024-03-02T02:16:41;42.63;;;35.80;;
2119;SDS011;1066;52.540;13.420;2024-03-02T02:19:06;41.43;;;33.80;;
2119;SDS011;1066;52.540;13.420;2024-03-02T02:21:31;43.83;;;33.43;;
2119;SDS011;1066;52.540;13.420;2024-03-02T02:23:57;39.30;;;34.53;;
2119;SDS011;1066;52.540;13.420;2024-03-02T02:26:22;39.70;;;34.13;;
2119;SDS011;1066;52.540;13.420;2024-03-02T02:28:48;41.57;;;35.47;;
2119;SDS011;1066;52.540;13.420;2024-03-02T02:31:14;44.67;;;35.00;;
2119;SDS011;1066;52.540;13.420;2024-03-02T02:33:39;42.90;;;36.57;;
2119;SDS011;1066;52.540;13.420;2024-03-02T02:36:05;45.43;;;35.53;;
2119;SDS011;1066;52.540;13.420;2024-03-02T02:38:31;40.97;;;35.00;;
2119;SDS011;1066;52.540;13.420;2024-03-02T02:40:58;39.83;;;35.07;;
2119;SDS011;1066;52.540;13.420;2024-03-02T02:43:23;43.60;;;36.30;;
2119;SDS011;1066;52.540;13.420;2024-03-02T02:45:48;44.60;;;36.33;;
2119;SDS011;1066;52.540;13.420;2024-03-02T02:48:14;44.63;;;37.13;;
2119;SDS011;1066;52.540;13.420;2024-03-02T02:50:39;42.57;;;36.53;;
2119;SDS011;1066;52.540;13.420;2024-03-02T02:53:05;44.37;;;34.13;;
2119;SDS011;1066;52.540;13.420;2024-03-02T02:55:31;41.20;;;34.70;;
2119;SDS011;1066;52.540;13.420;2024-03-02T02:57:56;45.60;;;34.87;;
2119;SDS011;1066;52.540;13.420;2024-03-02T03:00:21;45.03;;;35.20;;
2119;SDS011;1066;52.540;13.420;2024-03-02T03:02:48;38.47;;;34.03;;
2119;SDS011;1066;52.540;13.420;2024-03-02T03:05:14;45.23;;;34.53;;
2119;SDS011;1066;52.540;13.420;2024-03-02T03:07:40;40.77;;;34.70;;
2119;SDS011;1066;52.540;13.420;2024-03-02T03:10:07;41.07;;;34.33;;
2119;SDS011;1066;52.540;13.420;2024-03-02T03:12:33;39.53;;;33.50;;
2119;SDS011;1066;52.540;13.420;2024-03-02T03:14:59;40.23;;;33.93;;
2119;SDS011;1066;52.540;13.420;2024-03-02T03:17:25;39.43;;;32.90;;
2119;SDS011;1066;52.540;13.420;2024-03-02T03:19:50;40.30;;;33.60;;
2119;SDS011;1066;52.540;13.420;2024-03-02T03:22:16;36.10;;;31.20;;
2119;SDS011;1066;52.540;13.420;2024-03-02T03:24:42;38.20;;;33.07;;
2119;SDS011;1066;52.540;13.420;2024-03-02T03:27:07;37.20;;;33.30;;
2119;SDS011;1066;52.540;13.420;2024-03-02T03:29:32;42.23;;;33.77;;
2119;SDS011;1066;52.540;13.420;2024-03-02T03:31:58;43.23;;;32.87;;
2119;SDS011;1066;52.540;13.420;2024-03-02T03:34:23;45.13;;;32.20;;
2119;SDS011;1066;52.540;13.420;2024-03-02T03:36:48;40.53;;;30.57;;
2119;SDS011;1066;52.540;13.420;2024-03-02T03:39:14;37.00;;;32.73;;
2119;SDS011;1066;52.540;13.420;2024-03-02T03:41:42;36.50;;;32.03;;
2119;SDS011;1066;52.540;13.420;2024-03-02T03:44:08;42.30;;;30.90;;
2119;SDS011;1066;52.540;13.420;2024-03-02T03:46:33;38.40;;;30.67;;
2119;SDS011;1066;52.540;13.420;2024-03-02T03:48:58;40.60;;;30.33;;
2119;SDS011;1066;52.540;13.420;2024-03-02T03:51:24;34.37;;;30.33;;
2119;SDS011;1066;52.540;13.420;2024-03-02T03:53:49;31.17;;;27.80;;
2119;SDS011;1066;52.540;13.420;2024-03-02T03:56:14;36.17;;;30.87;;
2119;SDS011;1066;52.540;13.420;2024-03-02T03:58:40;39.57;;;32.40;;
2119;SDS011;1066;52.540;13.420;2024-03-02T04:01:05;34.07;;;30.57;;
2119;SDS011;1066;52.540;13.420;2024-03-02T04:03:30;32.97;;;29.23;;
2119;SDS011;1066;52.540;13.420;2024-03-02T04:05:56;34.00;;;29.77;;
2119;SDS011;1066;52.540;13.420;2024-03-02T04:08:21;33.03;;;28.70;;
2119;SDS011;1066;52.540;13.420;2024-03-02T04:10:47;34.93;;;30.27;;
2119;SDS011;1066;52.540;13.420;2024-03-02T04:13:12;35.67;;;30.37;;
2119;SDS011;1066;52.540;13.420;2024-03-02T04:15:37;33.77;;;29.50;;
2119;SDS011;1066;52.540;13.420;2024-03-02T04:18:03;35.63;;;28.90;;
2119;SDS011;1066;52.540;13.420;2024-03-02T04:20:31;34.97;;;28.53;;
2119;SDS011;1066;52.540;13.420;2024-03-02T04:22:56;35.20;;;28.83;;
2119;SDS011;1066;52.540;13.420;2024-03-02T04:25:21;34.40;;;29.00;;
2119;SDS011;1066;52.540;13.420;2024-03-02T04:27:47;34.53;;;27.60;;
2119;SDS011;1066;52.540;13.420;2024-03-02T04:30:12;35.60;;;27.67;;
2119;SDS011;1066;52.540;13.420;2024-03-02T04:32:40;32.60;;;29.00;;
2119;SDS011;1066;52.540;13.420;2024-03-02T04:35:06;30.97;;;27.77;;
2119;SDS011;1066;52.540;13.420;2024-03-02T04:37:36;33.33;;;26.90;;
2119;SDS011;1066;52.540;13.420;2024-03-02T04:40:01;33.37;;;26.87;;
2119;SDS011;1066;52.540;13.420;2024-03-02T04:42:27;32.13;;;27.47;;
2119;SDS011;1066;52.540;13.420;2024-03-02T04:44:56;32.63;;;27.93;;
2119;SDS011;1066;52.540;13.420;2024-03-02T04:47:21;30.53;;;25.87;;
2119;SDS011;1066;52.540;13.420;2024-03-02T04:49:47;33.00;;;27.30;;
2119;SDS011;1066;52.540;13.420;2024-03-02T04:52:13;32.17;;;27.03;;
2119;SDS011;1066;52.540;13.420;2024-03-02T04:54:38;32.30;;;25.30;;
2119;SDS011;1066;52.540;13.420;2024-03-02T04:57:23;35.10;;;27.57;;
2119;SDS011;1066;52.540;13.420;2024-03-02T04:59:48;28.97;;;25.70;;
2119;SDS011;1066;52.540;13.420;2024-03-02T05:02:14;35.27;;;28.87;;
2119;SDS011;1066;52.540;13.420;2024-03-02T05:04:41;32.20;;;26.60;;
2119;SDS011;1066;52.540;13.420;2024-03-02T05:07:07;30.73;;;27.50;;
2119;SDS011;1066;52.540;13.420;2024-03-02T05:09:32;36.33;;;27.87;;
2119;SDS011;1066;52.540;13.420;2024-03-02T05:11:57;33.57;;;29.73;;
2119;SDS011;1066;52.540;13.420;2024-03-02T05:14:54;34.57;;;29.20;;
2119;SDS011;1066;52.540;13.420;2024-03-02T05:17:20;30.63;;;25.90;;
2119;SDS011;1066;52.540;13.420;2024-03-02T05:19:45;33.60;;;26.70;;
2119;SDS011;1066;52.540;13.420;2024-03-02T05:22:10;32.73;;;27.77;;
2119;SDS011;1066;52.540;13.420;2024-03-02T05:24:36;36.33;;;29.40;;
2119;SDS011;1066;52.540;13.420;2024-03-02T05:27:01;33.27;;;28.97;;
2119;SDS011;1066;52.540;13.420;2024-03-02T05:29:27;30.00;;;26.73;;
2119;SDS011;1066;52.540;13.420;2024-03-02T05:31:52;31.43;;;28.07;;
2119;SDS011;1066;52.540;13.420;2024-03-02T05:34:17;28.80;;;25.87;;
2119;SDS011;1066;52.540;13.420;2024-03-02T05:36:43;31.03;;;27.83;;
2119;SDS011;1066;52.540;13.420;2024-03-02T05:39:08;30.90;;;26.83;;
2119;SDS011;1066;52.540;13.420;2024-03-02T05:41:35;33.40;;;27.90;;
2119;SDS011;1066;52.540;13.420;2024-03-02T05:44:00;33.37;;;29.00;;
2119;SDS011;1066;52.540;13.420;2024-03-02T05:46:26;37.17;;;30.20;;
2119;SDS011;1066;52.540;13.420;2024-03-02T05:48:52;32.77;;;28.43;;
2119;SDS011;1066;52.540;13.420;2024-03-02T05:51:17;35.57;;;30.67;;
2119;SDS011;1066;52.540;13.420;2024-03-02T05:53:43;34.77;;;28.53;;
2119;SDS011;1066;52.540;13.420;2024-03-02T05:56:08;34.40;;;28.70;;
2119;SDS011;1066;52.540;13.420;2024-03-02T05:58:34;35.47;;;29.07;;
2119;SDS011;1066;52.540;13.420;2024-03-02T06:01:13;35.27;;;31.20;;
2119;SDS011;1066;52.540;13.420;2024-03-02T06:03:38;39.27;;;31.27;;
2119;SDS011;1066;52.540;13.420;2024-03-02T06:06:03;34.23;;;29.60;;
2119;SDS011;1066;52.540;13.420;2024-03-02T06:08:29;39.80;;;32.20;;
2119;SDS011;1066;52.540;13.420;2024-03-02T06:10:54;36.30;;;30.10;;
2119;SDS011;1066;52.540;13.420;2024-03-02T06:13:21;38.33;;;30.07;;
2119;SDS011;1066;52.540;13.420;2024-03-02T06:15:46;37.13;;;30.37;;
2119;SDS011;1066;52.540;13.420;2024-03-02T06:18:11;39.53;;;30.33;;
2119;SDS011;1066;52.540;13.420;2024-03-02T06:20:37;42.23;;;31.93;;
2119;SDS011;1066;52.540;13.420;2024-03-02T06:23:03;38.30;;;31.60;;
2119;SDS011;1066;52.540;13.420;2024-03-02T06:25:29;43.67;;;33.97;;
2119;SDS011;1066;52.540;13.420;2024-03-02T06:27:54;34.30;;;28.60;;
2119;SDS011;1066;52.540;13.420;2024-03-02T06:30:19;38.97;;;30.00;;
2119;SDS011;1066;52.540;13.420;2024-03-02T06:32:45;44.33;;;31.20;;
2119;SDS011;1066;52.540;13.420;2024-03-02T06:35:10;41.20;;;30.70;;
2119;SDS011;1066;52.540;13.420;2024-03-02T06:37:36;36.97;;;31.43;;
2119;SDS011;1066;52.540;13.420;2024-03-02T06:40:03;36.63;;;29.87;;
2119;SDS011;1066;52.540;13.420;2024-03-02T06:42:28;37.97;;;33.87;;
2119;SDS011;1066;52.540;13.420;2024-03-02T06:44:58;41.00;;;35.07;;
2119;SDS011;1066;52.540;13.420;2024-03-02T06:47:23;39.50;;;33.00;;
2119;SDS011;1066;52.540;13.420;2024-03-02T06:49:49;35.63;;;31.57;;
2119;SDS011;1066;52.540;13.420;2024-03-02T06:52:14;43.53;;;34.57;;
2119;SDS011;1066;52.540;13.420;2024-03-02T06:54:39;45.37;;;36.07;;
2119;SDS011;1066;52.540;13.420;2024-03-02T06:57:05;34.33;;;29.57;;
2119;SDS011;1066;52.540;13.420;2024-03-02T06:59:32;38.90;;;32.50;;
2119;SDS011;1066;52.540;13.420;2024-03-02T07:01:58;37.23;;;32.00;;
2119;SDS011;1066;52.540;13.420;2024-03-02T07:04:23;34.73;;;30.93;;
2119;SDS011;1066;52.540;13.420;2024-03-02T07:06:49;39.10;;;32.90;;
2119;SDS011;1066;52.540;13.420;2024-03-02T07:09:14;40.23;;;32.00;;
2119;SDS011;1066;52.540;13.420;2024-03-02T07:11:39;41.70;;;33.07;;
2119;SDS011;1066;52.540;13.420;2024-03-02T07:14:05;39.77;;;30.00;;
2119;SDS011;1066;52.540;13.420;2024-03-02T07:16:31;37.70;;;31.90;;
2119;SDS011;1066;52.540;13.420;2024-03-02T07:18:58;42.87;;;31.20;;
2119;SDS011;1066;52.540;13.420;2024-03-02T07:21:27;41.03;;;34.90;;
2119;SDS011;1066;52.540;13.420;2024-03-02T07:23:52;45.20;;;33.93;;
2119;SDS011;1066;52.540;13.420;2024-03-02T07:26:20;47.00;;;34.00;;
2119;SDS011;1066;52.540;13.420;2024-03-02T07:32:07;43.67;;;34.00;;
2119;SDS011;1066;52.540;13.420;2024-03-02T07:34:33;39.33;;;32.07;;
2119;SDS011;1066;52.540;13.420;2024-03-02T07:36:58;39.70;;;31.33;;
2119;SDS011;1066;52.540;13.420;2024-03-02T07:39:24;39.70;;;32.70;;
2119;SDS011;1066;52.540;13.420;2024-03-02T07:41:50;46.27;;;33.73;;
2119;SDS011;1066;52.540;13.420;2024-03-02T07:44:15;39.00;;;31.80;;
2119;SDS011;1066;52.540;13.420;2024-03-02T07:46:41;38.47;;;32.80;;
2119;SDS011;1066;52.540;13.420;2024-03-02T07:49:07;52.27;;;34.90;;
2119;SDS011;1066;52.540;13.420;2024-03-02T07:51:34;36.70;;;32.17;;
2119;SDS011;1066;52.540;13.420;2024-03-02T07:53:59;41.63;;;34.17;;
2119;SDS011;1066;52.540;13.420;2024-03-02T07:56:25;41.43;;;32.50;;
2119;SDS011;1066;52.540;13.420;2024-03-02T07:58:50;43.83;;;33.40;;
2119;SDS011;1066;52.540;13.420;2024-03-02T08:01:15;40.70;;;32.30;;
2119;SDS011;1066;52.540;13.420;2024-03-02T08:03:42;38.53;;;31.70;;
2119;SDS011;1066;52.540;13.420;2024-03-02T08:06:07;38.37;;;31.03;;
2119;SDS011;1066;52.540;13.420;2024-03-02T08:08:33;36.60;;;31.03;;
2119;SDS011;1066;52.540;13.420;2024-03-02T08:10:58;40.03;;;33.97;;
2119;SDS011;1066;52.540;13.420;2024-03-02T08:13:23;35.83;;;29.90;;
2119;SDS011;1066;52.540;13.420;2024-03-02T08:15:49;37.00;;;29.93;;
2119;SDS011;1066;52.540;13.420;2024-03-02T08:18:14;37.07;;;31.60;;
2119;SDS011;1066;52.540;13.420;2024-03-02T08:20:40;36.43;;;30.50;;
2119;SDS011;1066;52.540;13.420;2024-03-02T08:23:08;38.50;;;31.37;;
2119;SDS011;1066;52.540;13.420;2024-03-02T08:25:33;36.87;;;31.43;;
2119;SDS011;1066;52.540;13.420;2024-03-02T08:27:59;38.23;;;32.07;;
2119;SDS011;1066;52.540;13.420;2024-03-02T08:30:24;42.80;;;33.10;;
2119;SDS011;1066;52.540;13.420;2024-03-02T08:32:49;38.30;;;32.00;;
2119;SDS011;1066;52.540;13.420;2024-03-02T08:35:15;38.47;;;32.87;;
2119;SDS011;1066;52.540;13.420;2024-03-02T08:37:41;39.67;;;33.60;;
2119;SDS011;1066;52.540;13.420;2024-03-02T08:40:11;42.87;;;33.00;;
2119;SDS011;1066;52.540;13.420;2024-03-02T08:42:36;38.47;;;33.17;;
2119;SDS011;1066;52.540;13.420;2024-03-02T08:45:02;38.23;;;32.80;;
2119;SDS011;1066;52.540;13.420;2024-03-02T08:47:27;42.20;;;30.37;;
2119;SDS011;1066;52.540;13.420;2024-03-02T08:49:52;35.57;;;31.67;;
2119;SDS011;1066;52.540;13.420;2024-03-02T08:52:18;35.17;;;31.43;;
2119;SDS011;1066;52.540;13.420;2024-03-02T08:54:43;36.00;;;29.50;;
2119;SDS011;1066;52.540;13.420;2024-03-02T08:57:09;38.13;;;30.57;;
2119;SDS011;1066;52.540;13.420;2024-03-02T08:59:34;36.83;;;29.40;;
2119;SDS011;1066;52.540;13.420;2024-03-02T09:01:59;37.10;;;30.03;;
2119;SDS011;1066;52.540;13.420;2024-03-02T09:04:25;36.87;;;30.20;;
2119;SDS011;1066;52.540;13.420;2024-03-02T09:06:50;41.70;;;29.83;;
2119;SDS011;1066;52.540;13.420;2024-03-02T09:09:16;37.10;;;29.43;;
2119;SDS011;1066;52.540;13.420;2024-03-02T09:11:42;32.77;;;28.70;;
2119;SDS011;1066;52.540;13.420;2024-03-02T09:14:08;35.17;;;29.30;;
2119;SDS011;1066;52.540;13.420;2024-03-02T09:16:33;35.70;;;30.70;;
2119;SDS011;1066;52.540;13.420;2024-03-02T09:18:58;34.20;;;29.43;;
2119;SDS011;1066;52.540;13.420;2024-03-02T09:21:25;37.57;;;30.93;;
2119;SDS011;1066;52.540;13.420;2024-03-02T09:23:50;36.20;;;28.57;;
2119;SDS011;1066;52.540;13.420;2024-03-02T09:26:15;35.27;;;29.80;;
2119;SDS011;1066;52.540;13.420;2024-03-02T09:28:44;38.50;;;31.40;;
2119;SDS011;1066;52.540;13.420;2024-03-02T09:31:09;36.60;;;31.00;;
2119;SDS011;1066;52.540;13.420;2024-03-02T09:33:35;36.50;;;30.07;;
2119;SDS011;1066;52.540;13.420;2024-03-02T09:36:00;34.60;;;29.67;;
2119;SDS011;1066;52.540;13.420;2024-03-02T09:38:25;38.40;;;31.20;;
2119;SDS011;1066;52.540;13.420;2024-03-02T09:40:52;40.10;;;31.83;;
2119;SDS011;1066;52.540;13.420;2024-03-02T09:43:17;36.80;;;30.23;;
2119;SDS011;1066;52.540;13.420;2024-03-02T09:45:43;41.03;;;32.87;;
2119;SDS011;1066;52.540;13.420;2024-03-02T09:48:10;39.53;;;32.17;;
2119;SDS011;1066;52.540;13.420;2024-03-02T09:50:35;36.33;;;29.40;;
2119;SDS011;1066;52.540;13.420;2024-03-02T09:53:01;43.67;;;32.03;;
2119;SDS011;1066;52.540;13.420;2024-03-02T09:55:27;32.87;;;29.30;;
2119;SDS011;1066;52.540;13.420;2024-03-02T09:57:55;34.80;;;28.53;;
2119;SDS011;1066;52.540;13.420;2024-03-02T10:00:21;37.13;;;30.73;;
2119;SDS011;1066;52.540;13.420;2024-03-02T10:02:49;34.70;;;28.20;;
2119;SDS011;1066;52.540;13.420;2024-03-02T10:05:23;34.20;;;28.73;;
2119;SDS011;1066;52.540;13.420;2024-03-02T10:08:01;34.83;;;27.80;;
2119;SDS011;1066;52.540;13.420;2024-03-02T10:10:37;31.20;;;27.40;;
2119;SDS011;1066;52.540;13.420;2024-03-02T10:13:06;33.90;;;27.27;;
2119;SDS011;1066;52.540;13.420;2024-03-02T10:15:32;33.63;;;28.67;;
2119;SDS011;1066;52.540;13.420;2024-03-02T10:17:57;32.83;;;27.80;;
2119;SDS011;1066;52.540;13.420;2024-03-02T10:20:25;33.47;;;29.43;;
2119;SDS011;1066;52.540;13.420;2024-03-02T10:22:54;29.60;;;26.50;;
2119;SDS011;1066;52.540;13.420;2024-03-02T10:25:31;34.90;;;27.87;;
2119;SDS011;1066;52.540;13.420;2024-03-02T10:27:58;31.20;;;24.53;;
2119;SDS011;1066;52.540;13.420;2024-03-02T10:30:24;27.10;;;24.10;;
2119;SDS011;1066;52.540;13.420;2024-03-02T10:32:51;26.20;;;23.17;;
2119;SDS011;1066;52.540;13.420;2024-03-02T10:35:17;27.03;;;22.07;;
2119;SDS011;1066;52.540;13.420;2024-03-02T10:37:43;26.50;;;22.90;;
2119;SDS011;1066;52.540;13.420;2024-03-02T10:40:10;31.37;;;26.07;;
2119;SDS011;1066;52.540;13.420;2024-03-02T10:42:36;30.73;;;24.73;;
2119;SDS011;1066;52.540;13.420;2024-03-02T10:45:03;26.30;;;23.30;;
2119;SDS011;1066;52.540;13.420;2024-03-02T10:47:30;26.23;;;23.10;;
2119;SDS011;1066;52.540;13.420;2024-03-02T10:49:56;22.43;;;20.00;;
2119;SDS011;1066;52.540;13.420;2024-03-02T10:52:24;23.93;;;21.43;;
2119;SDS011;1066;52.540;13.420;2024-03-02T10:54:49;26.07;;;21.83;;
2119;SDS011;1066;52.540;13.420;2024-03-02T10:57:15;26.23;;;22.63;;
2119;SDS011;1066;52.540;13.420;2024-03-02T10:59:56;24.90;;;22.40;;
2119;SDS011;1066;52.540;13.420;2024-03-02T11:02:22;23.33;;;20.30;;
2119;SDS011;1066;52.540;13.420;2024-03-02T11:04:49;26.30;;;21.40;;
2119;SDS011;1066;52.540;13.420;2024-03-02T11:07:15;22.40;;;19.17;;
2119;SDS011;1066;52.540;13.420;2024-03-02T11:09:45;23.57;;;19.90;;
2119;SDS011;1066;52.540;13.420;2024-03-02T11:12:19;21.83;;;19.37;;
2119;SDS011;1066;52.540;13.420;2024-03-02T11:14:48;24.53;;;18.17;;
2119;SDS011;1066;52.540;13.420;2024-03-02T11:17:19;23.23;;;20.00;;
2119;SDS011;1066;52.540;13.420;2024-03-02T11:19:45;22.63;;;19.47;;
2119;SDS011;1066;52.540;13.420;2024-03-02T11:22:11;19.37;;;16.97;;
2119;SDS011;1066;52.540;13.420;2024-03-02T11:24:37;19.43;;;17.43;;
2119;SDS011;1066;52.540;13.420;2024-03-02T11:27:03;19.60;;;16.67;;
2119;SDS011;1066;52.540;13.420;2024-03-02T11:32:02;20.00;;;17.90;;
2119;SDS011;1066;52.540;13.420;2024-03-02T11:34:36;24.00;;;18.80;;
2119;SDS011;1066;52.540;13.420;2024-03-02T11:37:04;23.07;;;19.23;;
2119;SDS011;1066;52.540;13.420;2024-03-02T11:39:30;22.43;;;19.43;;
2119;SDS011;1066;52.540;13.420;2024-03-02T11:41:56;24.43;;;20.03;;
2119;SDS011;1066;52.540;13.420;2024-03-02T11:44:22;23.60;;;18.30;;
2119;SDS011;1066;52.540;13.420;2024-03-02T11:47:00;21.80;;;19.27;;
2119;SDS011;1066;52.540;13.420;2024-03-02T11:49:36;21.67;;;18.93;;
2119;SDS011;1066;52.540;13.420;2024-03-02T11:52:06;23.40;;;19.30;;
2119;SDS011;1066;52.540;13.420;2024-03-02T11:54:32;23.07;;;19.30;;
2119;SDS011;1066;52.540;13.420;2024-03-02T11:57:00;20.20;;;18.00;;
2119;SDS011;1066;52.540;13.420;2024-03-02T11:59:27;21.93;;;18.60;;
2119;SDS011;1066;52.540;13.420;2024-03-02T12:01:54;19.40;;;17.10;;
2119;SDS011;1066;52.540;13.420;2024-03-02T12:04:19;22.10;;;19.70;;
2119;SDS011;1066;52.540;13.420;2024-03-02T12:06:49;21.80;;;17.53;;
2119;SDS011;1066;52.540;13.420;2024-03-02T12:09:20;20.30;;;18.13;;
2119;SDS011;1066;52.540;13.420;2024-03-02T12:11:46;23.83;;;18.30;;
2119;SDS011;1066;52.540;13.420;2024-03-02T12:14:11;19.93;;;17.83;;
2119;SDS011;1066;52.540;13.420;2024-03-02T12:16:38;20.53;;;17.10;;
2119;SDS011;1066;52.540;13.420;2024-03-02T12:19:04;21.30;;;16.63;;
2119;SDS011;1066;52.540;13.420;2024-03-02T12:21:30;16.93;;;15.13;;
2119;SDS011;1066;52.540;13.420;2024-03-02T12:23:56;19.67;;;15.57;;
2119;SDS011;1066;52.540;13.420;2024-03-02T12:26:21;18.77;;;16.33;;
2119;SDS011;1066;52.540;13.420;2024-03-02T12:28:47;20.83;;;17.07;;
2119;SDS011;1066;52.540;13.420;2024-03-02T12:31:13;17.90;;;16.07;;
2119;SDS011;1066;52.540;13.420;2024-03-02T12:33:38;19.37;;;16.20;;
2119;SDS011;1066;52.540;13.420;2024-03-02T12:36:05;17.73;;;15.53;;
2119;SDS011;1066;52.540;13.420;2024-03-02T12:38:37;20.10;;;15.40;;
2119;SDS011;1066;52.540;13.420;2024-03-02T12:41:02;17.30;;;14.67;;
2119;SDS011;1066;52.540;13.420;2024-03-02T12:43:31;20.70;;;17.60;;
2119;SDS011;1066;52.540;13.420;2024-03-02T12:45:59;19.70;;;17.43;;
2119;SDS011;1066;52.540;13.420;2024-03-02T12:48:25;21.17;;;18.13;;
2119;SDS011;1066;52.540;13.420;2024-03-02T12:50:50;19.37;;;17.47;;
2119;SDS011;1066;52.540;13.420;2024-03-02T12:53:15;20.60;;;17.33;;
2119;SDS011;1066;52.540;13.420;2024-03-02T12:55:43;18.23;;;16.30;;
2119;SDS011;1066;52.540;13.420;2024-03-02T12:58:18;21.63;;;16.77;;
2119;SDS011;1066;52.540;13.420;2024-03-02T13:00:45;18.90;;;15.97;;
2119;SDS011;1066;52.540;13.420;2024-03-02T13:03:11;17.97;;;16.13;;
2119;SDS011;1066;52.540;13.420;2024-03-02T13:05:36;16.57;;;14.87;;
2119;SDS011;1066;52.540;13.420;2024-03-02T13:08:02;19.70;;;16.10;;
2119;SDS011;1066;52.540;13.420;2024-03-02T13:10:29;18.43;;;16.20;;
2119;SDS011;1066;52.540;13.420;2024-03-02T13:12:55;19.93;;;15.63;;
2119;SDS011;1066;52.540;13.420;2024-03-02T13:15:21;17.23;;;15.43;;
2119;SDS011;1066;52.540;13.420;2024-03-02T13:17:47;17.67;;;13.23;;
2119;SDS011;1066;52.540;13.420;2024-03-02T13:20:12;19.03;;;14.47;;
2119;SDS011;1066;52.540;13.420;2024-03-02T13:22:39;19.23;;;15.40;;
2119;SDS011;1066;52.540;13.420;2024-03-02T13:25:04;18.80;;;15.93;;
2119;SDS011;1066;52.540;13.420;2024-03-02T13:27:30;15.00;;;13.30;;
2119;SDS011;1066;52.540;13.420;2024-03-02T13:29:57;15.93;;;14.40;;
2119;SDS011;1066;52.540;13.420;2024-03-02T13:32:22;15.07;;;13.30;;
2119;SDS011;1066;52.540;13.420;2024-03-02T13:34:49;17.37;;;13.90;;
2119;SDS011;1066;52.540;13.420;2024-03-02T13:37:14;14.33;;;13.00;;
2119;SDS011;1066;52.540;13.420;2024-03-02T13:39:40;16.90;;;12.93;;
2119;SDS011;1066;52.540;13.420;2024-03-02T13:42:07;15.50;;;12.97;;
2119;SDS011;1066;52.540;13.420;2024-03-02T13:44:33;16.80;;;15.07;;
2119;SDS011;1066;52.540;13.420;2024-03-02T13:47:00;17.47;;;14.27;;
2119;SDS011;1066;52.540;13.420;2024-03-02T13:49:25;12.43;;;11.00;;
2119;SDS011;1066;52.540;13.420;2024-03-02T13:51:58;14.10;;;12.47;;
2119;SDS011;1066;52.540;13.420;2024-03-02T13:54:28;14.40;;;12.90;;
2119;SDS011;1066;52.540;13.420;2024-03-02T13:56:54;13.63;;;12.23;;
2119;SDS011;1066;52.540;13.420;2024-03-02T13:59:19;12.83;;;11.53;;
2119;SDS011;1066;52.540;13.420;2024-03-02T14:01:45;14.40;;;12.90;;
2119;SDS011;1066;52.540;13.420;2024-03-02T14:04:10;13.87;;;12.47;;
2119;SDS011;1066;52.540;13.420;2024-03-02T14:06:35;13.80;;;12.30;;
2119;SDS011;1066;52.540;13.420;2024-03-02T14:09:01;13.73;;;11.97;;
2119;SDS011;1066;52.540;13.420;2024-03-02T14:11:26;15.83;;;12.63;;
2119;SDS011;1066;52.540;13.420;2024-03-02T14:13:52;14.00;;;12.50;;
2119;SDS011;1066;52.540;13.420;2024-03-02T14:16:19;14.77;;;12.20;;
2119;SDS011;1066;52.540;13.420;2024-03-02T14:18:45;16.20;;;14.17;;
2119;SDS011;1066;52.540;13.420;2024-03-02T14:21:13;14.30;;;12.80;;
2119;SDS011;1066;52.540;13.420;2024-03-02T14:23:38;13.20;;;11.83;;
2119;SDS011;1066;52.540;13.420;2024-03-02T14:26:05;14.73;;;12.53;;
2119;SDS011;1066;52.540;13.420;2024-03-02T14:28:31;14.47;;;13.10;;
2119;SDS011;1066;52.540;13.420;2024-03-02T14:30:56;15.43;;;13.17;;
2119;SDS011;1066;52.540;13.420;2024-03-02T14:33:21;18.90;;;13.20;;
2119;SDS011;1066;52.540;13.420;2024-03-02T14:35:49;13.13;;;11.30;;